sensor_id;sensor_type;location;lat;lon;timestamp;P1;durP1;ratioP1;P2;durP2;ratioP2
24407;SDS011;12542;50.924;4.516;2023-09-19T00:01:07;10.80;;;1.85;;
24407;SDS011;12542;50.924;4.516;2023-09-19T00:03:37;14.85;;;2.28;;
24407;SDS011;12542;50.924;4.516;2023-09-19T00:06:04;9.73;;;1.52;;
24407;SDS011;12542;50.924;4.516;2023-09-19T00:08:32;7.97;;;1.23;;
24407;SDS011;12542;50.924;4.516;2023-09-19T00:10:58;7.43;;;1.67;;
24407;SDS011;12542;50.924;4.516;2023-09-19T00:13:28;10.30;;;1.90;;
24407;SDS011;12542;50.924;4.516;2023-09-19T00:15:55;14.27;;;1.67;;
24407;SDS011;12542;50.924;4.516;2023-09-19T00:18:24;9.27;;;1.65;;
24407;SDS011;12542;50.924;4.516;2023-09-19T00:20:57;7.72;;;1.52;;
24407;SDS011;12542;50.924;4.516;2023-09-19T00:23:23;12.40;;;2.53;;
24407;SDS011;12542;50.924;4.516;2023-09-19T00:25:49;9.35;;;1.77;;
24407;SDS011;12542;50.924;4.516;2023-09-19T00:28:17;11.55;;;1.73;;
24407;SDS011;12542;50.924;4.516;2023-09-19T00:30:45;18.40;;;2.40;;
24407;SDS011;12542;50.924;4.516;2023-09-19T00:33:19;12.65;;;2.00;;
24407;SDS011;12542;50.924;4.516;2023-09-19T00:35:52;11.70;;;1.70;;
24407;SDS011;12542;50.924;4.516;2023-09-19T00:38:19;10.90;;;1.90;;
24407;SDS011;12542;50.924;4.516;2023-09-19T00:40:52;10.98;;;2.45;;
24407;SDS011;12542;50.924;4.516;2023-09-19T00:43:18;14.32;;;2.97;;
24407;SDS011;12542;50.924;4.516;2023-09-19T00:45:49;15.40;;;2.42;;
24407;SDS011;12542;50.924;4.516;2023-09-19T00:48:18;9.10;;;1.60;;
24407;SDS011;12542;50.924;4.516;2023-09-19T00:50:45;13.75;;;2.25;;
24407;SDS011;12542;50.924;4.516;2023-09-19T00:53:13;8.82;;;1.95;;
24407;SDS011;12542;50.924;4.516;2023-09-19T00:55:43;17.60;;;2.42;;
24407;SDS011;12542;50.924;4.516;2023-09-19T00:58:10;11.98;;;2.13;;
24407;SDS011;12542;50.924;4.516;2023-09-19T01:00:36;11.13;;;1.83;;
24407;SDS011;12542;50.924;4.516;2023-09-19T01:03:03;12.77;;;1.92;;
24407;SDS011;12542;50.924;4.516;2023-09-19T01:05:31;12.82;;;2.00;;
24407;SDS011;12542;50.924;4.516;2023-09-19T01:07:58;11.23;;;1.45;;
24407;SDS011;12542;50.924;4.516;2023-09-19T01:10:24;7.50;;;1.40;;
24407;SDS011;12542;50.924;4.516;2023-09-19T01:13:04;9.82;;;2.65;;
24407;SDS011;12542;50.924;4.516;2023-09-19T01:19:48;7.25;;;1.73;;
24407;SDS011;12542;50.924;4.516;2023-09-19T01:21:55;7.75;;;1.63;;
24407;SDS011;12542;50.924;4.516;2023-09-19T01:30:46;12.60;;;2.03;;
24407;SDS011;12542;50.924;4.516;2023-09-19T01:33:19;11.75;;;2.47;;
24407;SDS011;12542;50.924;4.516;2023-09-19T01:35:45;11.95;;;2.00;;
24407;SDS011;12542;50.924;4.516;2023-09-19T01:38:10;8.23;;;1.42;;
24407;SDS011;12542;50.924;4.516;2023-09-19T01:40:41;15.40;;;1.80;;
24407;SDS011;12542;50.924;4.516;2023-09-19T01:43:17;10.30;;;1.92;;
24407;SDS011;12542;50.924;4.516;2023-09-19T01:48:25;13.27;;;2.00;;
24407;SDS011;12542;50.924;4.516;2023-09-19T01:51:18;10.23;;;1.90;;
24407;SDS011;12542;50.924;4.516;2023-09-19T01:53:53;9.93;;;1.73;;
24407;SDS011;12542;50.924;4.516;2023-09-19T01:56:29;9.20;;;1.90;;
24407;SDS011;12542;50.924;4.516;2023-09-19T01:59:09;10.25;;;1.65;;
24407;SDS011;12542;50.924;4.516;2023-09-19T02:01:38;11.57;;;2.47;;
24407;SDS011;12542;50.924;4.516;2023-09-19T02:04:05;9.02;;;1.30;;
24407;SDS011;12542;50.924;4.516;2023-09-19T02:06:32;8.20;;;1.98;;
24407;SDS011;12542;50.924;4.516;2023-09-19T02:08:59;9.35;;;2.20;;
24407;SDS011;12542;50.924;4.516;2023-09-19T02:11:25;13.60;;;2.65;;
24407;SDS011;12542;50.924;4.516;2023-09-19T02:13:51;14.70;;;2.58;;
24407;SDS011;12542;50.924;4.516;2023-09-19T02:16:20;12.18;;;1.80;;
24407;SDS011;12542;50.924;4.516;2023-09-19T02:18:47;14.48;;;2.17;;
24407;SDS011;12542;50.924;4.516;2023-09-19T02:21:14;14.95;;;2.30;;
24407;SDS011;12542;50.924;4.516;2023-09-19T02:23:41;9.15;;;1.83;;
24407;SDS011;12542;50.924;4.516;2023-09-19T02:26:06;9.65;;;1.92;;
24407;SDS011;12542;50.924;4.516;2023-09-19T02:28:32;11.07;;;2.17;;
24407;SDS011;12542;50.924;4.516;2023-09-19T02:31:01;12.82;;;2.00;;
24407;SDS011;12542;50.924;4.516;2023-09-19T02:33:27;15.15;;;2.28;;
24407;SDS011;12542;50.924;4.516;2023-09-19T02:35:57;15.55;;;1.85;;
24407;SDS011;12542;50.924;4.516;2023-09-19T02:38:23;12.18;;;2.15;;
24407;SDS011;12542;50.924;4.516;2023-09-19T02:40:52;15.65;;;2.53;;
24407;SDS011;12542;50.924;4.516;2023-09-19T02:43:20;7.88;;;1.73;;
24407;SDS011;12542;50.924;4.516;2023-09-19T02:45:46;13.90;;;2.47;;
24407;SDS011;12542;50.924;4.516;2023-09-19T02:48:14;9.05;;;1.75;;
24407;SDS011;12542;50.924;4.516;2023-09-19T02:50:41;15.82;;;2.75;;
24407;SDS011;12542;50.924;4.516;2023-09-19T02:53:07;10.85;;;2.15;;
24407;SDS011;12542;50.924;4.516;2023-09-19T02:55:33;8.75;;;1.50;;
24407;SDS011;12542;50.924;4.516;2023-09-19T02:57:59;8.43;;;1.80;;
24407;SDS011;12542;50.924;4.516;2023-09-19T03:00:26;10.48;;;2.22;;
24407;SDS011;12542;50.924;4.516;2023-09-19T03:02:53;12.75;;;2.10;;
24407;SDS011;12542;50.924;4.516;2023-09-19T03:05:20;10.27;;;2.03;;
24407;SDS011;12542;50.924;4.516;2023-09-19T03:07:47;14.10;;;2.15;;
24407;SDS011;12542;50.924;4.516;2023-09-19T03:10:16;8.80;;;1.88;;
24407;SDS011;12542;50.924;4.516;2023-09-19T03:12:43;9.02;;;2.10;;
24407;SDS011;12542;50.924;4.516;2023-09-19T03:15:08;12.80;;;2.17;;
24407;SDS011;12542;50.924;4.516;2023-09-19T03:17:35;16.25;;;2.83;;
24407;SDS011;12542;50.924;4.516;2023-09-19T03:20:01;12.73;;;2.10;;
24407;SDS011;12542;50.924;4.516;2023-09-19T03:22:27;11.27;;;1.90;;
24407;SDS011;12542;50.924;4.516;2023-09-19T03:24:53;10.40;;;2.15;;
24407;SDS011;12542;50.924;4.516;2023-09-19T03:27:19;8.45;;;2.00;;
24407;SDS011;12542;50.924;4.516;2023-09-19T03:29:46;9.25;;;2.00;;
24407;SDS011;12542;50.924;4.516;2023-09-19T03:32:17;11.45;;;1.92;;
24407;SDS011;12542;50.924;4.516;2023-09-19T03:34:42;10.60;;;2.15;;
24407;SDS011;12542;50.924;4.516;2023-09-19T03:37:09;13.38;;;1.98;;
24407;SDS011;12542;50.924;4.516;2023-09-19T03:39:35;10.18;;;2.08;;
24407;SDS011;12542;50.924;4.516;2023-09-19T03:42:01;7.75;;;2.15;;
24407;SDS011;12542;50.924;4.516;2023-09-19T03:44:29;8.07;;;1.63;;
24407;SDS011;12542;50.924;4.516;2023-09-19T03:46:55;10.52;;;1.88;;
24407;SDS011;12542;50.924;4.516;2023-09-19T03:49:22;11.20;;;2.58;;
24407;SDS011;12542;50.924;4.516;2023-09-19T03:51:47;9.27;;;1.67;;
24407;SDS011;12542;50.924;4.516;2023-09-19T03:54:13;11.23;;;1.77;;
24407;SDS011;12542;50.924;4.516;2023-09-19T03:56:39;11.45;;;2.00;;
24407;SDS011;12542;50.924;4.516;2023-09-19T03:59:04;11.68;;;2.10;;
24407;SDS011;12542;50.924;4.516;2023-09-19T04:01:31;12.27;;;1.80;;
24407;SDS011;12542;50.924;4.516;2023-09-19T04:03:58;12.10;;;2.42;;
24407;SDS011;12542;50.924;4.516;2023-09-19T04:06:32;13.43;;;2.33;;
24407;SDS011;12542;50.924;4.516;2023-09-19T04:09:01;11.30;;;2.10;;
24407;SDS011;12542;50.924;4.516;2023-09-19T04:11:28;11.07;;;1.95;;
24407;SDS011;12542;50.924;4.516;2023-09-19T04:13:58;10.05;;;1.83;;
24407;SDS011;12542;50.924;4.516;2023-09-19T04:16:24;18.88;;;2.40;;
24407;SDS011;12542;50.924;4.516;2023-09-19T04:18:50;12.90;;;1.70;;
24407;SDS011;12542;50.924;4.516;2023-09-19T04:21:15;11.07;;;1.77;;
24407;SDS011;12542;50.924;4.516;2023-09-19T04:23:41;12.23;;;2.75;;
24407;SDS011;12542;50.924;4.516;2023-09-19T04:26:08;12.75;;;2.70;;
24407;SDS011;12542;50.924;4.516;2023-09-19T04:28:33;10.35;;;1.85;;
24407;SDS011;12542;50.924;4.516;2023-09-19T04:31:01;16.90;;;2.72;;
24407;SDS011;12542;50.924;4.516;2023-09-19T04:33:27;8.73;;;2.05;;
24407;SDS011;12542;50.924;4.516;2023-09-19T04:35:55;13.30;;;2.42;;
24407;SDS011;12542;50.924;4.516;2023-09-19T04:38:21;17.73;;;2.97;;
24407;SDS011;12542;50.924;4.516;2023-09-19T04:40:47;8.45;;;1.90;;
24407;SDS011;12542;50.924;4.516;2023-09-19T04:43:13;17.27;;;2.38;;
24407;SDS011;12542;50.924;4.516;2023-09-19T04:45:40;11.38;;;2.28;;
24407;SDS011;12542;50.924;4.516;2023-09-19T04:48:05;7.03;;;1.50;;
24407;SDS011;12542;50.924;4.516;2023-09-19T04:50:32;14.38;;;2.13;;
24407;SDS011;12542;50.924;4.516;2023-09-19T04:52:59;9.45;;;2.08;;
24407;SDS011;12542;50.924;4.516;2023-09-19T04:55:26;13.85;;;1.98;;
24407;SDS011;12542;50.924;4.516;2023-09-19T04:57:52;12.90;;;1.90;;
24407;SDS011;12542;50.924;4.516;2023-09-19T05:00:19;13.98;;;2.50;;
24407;SDS011;12542;50.924;4.516;2023-09-19T05:02:48;13.23;;;2.33;;
24407;SDS011;12542;50.924;4.516;2023-09-19T05:05:17;11.30;;;2.10;;
24407;SDS011;12542;50.924;4.516;2023-09-19T05:07:44;8.63;;;1.70;;
24407;SDS011;12542;50.924;4.516;2023-09-19T05:10:10;12.95;;;2.17;;
24407;SDS011;12542;50.924;4.516;2023-09-19T05:12:39;10.70;;;2.00;;
24407;SDS011;12542;50.924;4.516;2023-09-19T05:15:06;12.80;;;3.13;;
24407;SDS011;12542;50.924;4.516;2023-09-19T05:17:33;6.60;;;1.35;;
24407;SDS011;12542;50.924;4.516;2023-09-19T05:19:59;13.18;;;1.60;;
24407;SDS011;12542;50.924;4.516;2023-09-19T05:22:49;10.52;;;1.95;;
24407;SDS011;12542;50.924;4.516;2023-09-19T05:25:16;13.50;;;1.75;;
24407;SDS011;12542;50.924;4.516;2023-09-19T05:27:43;13.50;;;1.90;;
24407;SDS011;12542;50.924;4.516;2023-09-19T05:30:09;17.98;;;3.58;;
24407;SDS011;12542;50.924;4.516;2023-09-19T05:32:35;7.75;;;1.98;;
24407;SDS011;12542;50.924;4.516;2023-09-19T05:35:03;10.00;;;1.88;;
24407;SDS011;12542;50.924;4.516;2023-09-19T05:37:33;13.30;;;2.13;;
24407;SDS011;12542;50.924;4.516;2023-09-19T05:39:58;14.73;;;2.00;;
24407;SDS011;12542;50.924;4.516;2023-09-19T05:42:24;12.60;;;1.83;;
24407;SDS011;12542;50.924;4.516;2023-09-19T05:44:50;21.38;;;2.40;;
24407;SDS011;12542;50.924;4.516;2023-09-19T05:47:15;15.30;;;2.42;;
24407;SDS011;12542;50.924;4.516;2023-09-19T05:49:41;17.83;;;2.15;;
24407;SDS011;12542;50.924;4.516;2023-09-19T05:52:07;13.27;;;2.17;;
24407;SDS011;12542;50.924;4.516;2023-09-19T05:54:33;12.93;;;1.83;;
24407;SDS011;12542;50.924;4.516;2023-09-19T05:57:02;14.73;;;3.20;;
24407;SDS011;12542;50.924;4.516;2023-09-19T05:59:28;17.30;;;2.17;;
24407;SDS011;12542;50.924;4.516;2023-09-19T06:01:54;12.13;;;2.28;;
24407;SDS011;12542;50.924;4.516;2023-09-19T06:04:20;15.52;;;2.65;;
24407;SDS011;12542;50.924;4.516;2023-09-19T06:06:46;16.83;;;2.10;;
24407;SDS011;12542;50.924;4.516;2023-09-19T06:09:13;11.60;;;2.05;;
24407;SDS011;12542;50.924;4.516;2023-09-19T06:11:41;12.10;;;2.10;;
24407;SDS011;12542;50.924;4.516;2023-09-19T06:14:09;13.32;;;2.25;;
24407;SDS011;12542;50.924;4.516;2023-09-19T06:16:35;10.07;;;1.88;;
24407;SDS011;12542;50.924;4.516;2023-09-19T06:19:03;11.80;;;2.35;;
24407;SDS011;12542;50.924;4.516;2023-09-19T06:21:31;10.77;;;1.98;;
24407;SDS011;12542;50.924;4.516;2023-09-19T06:23:57;10.80;;;1.90;;
24407;SDS011;12542;50.924;4.516;2023-09-19T06:26:23;9.85;;;1.83;;
24407;SDS011;12542;50.924;4.516;2023-09-19T06:28:48;13.45;;;2.28;;
24407;SDS011;12542;50.924;4.516;2023-09-19T06:31:14;13.05;;;2.05;;
24407;SDS011;12542;50.924;4.516;2023-09-19T06:33:40;12.55;;;2.38;;
24407;SDS011;12542;50.924;4.516;2023-09-19T06:36:06;9.68;;;1.63;;
24407;SDS011;12542;50.924;4.516;2023-09-19T06:38:32;16.10;;;2.25;;
24407;SDS011;12542;50.924;4.516;2023-09-19T06:41:01;12.68;;;2.05;;
24407;SDS011;12542;50.924;4.516;2023-09-19T06:43:30;13.20;;;2.20;;
24407;SDS011;12542;50.924;4.516;2023-09-19T06:45:57;8.35;;;1.80;;
24407;SDS011;12542;50.924;4.516;2023-09-19T06:48:24;8.00;;;1.73;;
24407;SDS011;12542;50.924;4.516;2023-09-19T06:50:50;10.10;;;2.00;;
24407;SDS011;12542;50.924;4.516;2023-09-19T06:53:17;10.88;;;1.80;;
24407;SDS011;12542;50.924;4.516;2023-09-19T06:55:43;14.48;;;1.77;;
24407;SDS011;12542;50.924;4.516;2023-09-19T06:58:10;8.75;;;1.77;;
24407;SDS011;12542;50.924;4.516;2023-09-19T07:00:36;10.85;;;1.80;;
24407;SDS011;12542;50.924;4.516;2023-09-19T07:05:33;11.27;;;2.05;;
24407;SDS011;12542;50.924;4.516;2023-09-19T07:08:04;12.15;;;2.00;;
24407;SDS011;12542;50.924;4.516;2023-09-19T07:10:31;11.32;;;1.92;;
24407;SDS011;12542;50.924;4.516;2023-09-19T07:15:28;11.70;;;2.17;;
24407;SDS011;12542;50.924;4.516;2023-09-19T07:17:55;8.32;;;2.00;;
24407;SDS011;12542;50.924;4.516;2023-09-19T07:20:22;7.03;;;1.33;;
24407;SDS011;12542;50.924;4.516;2023-09-19T07:22:51;13.27;;;1.60;;
24407;SDS011;12542;50.924;4.516;2023-09-19T07:25:16;8.30;;;1.70;;
24407;SDS011;12542;50.924;4.516;2023-09-19T07:27:42;9.63;;;2.35;;
24407;SDS011;12542;50.924;4.516;2023-09-19T07:30:11;9.85;;;1.38;;
24407;SDS011;12542;50.924;4.516;2023-09-19T07:32:37;10.15;;;2.00;;
24407;SDS011;12542;50.924;4.516;2023-09-19T07:35:06;17.10;;;2.33;;
24407;SDS011;12542;50.924;4.516;2023-09-19T07:37:32;11.07;;;2.40;;
24407;SDS011;12542;50.924;4.516;2023-09-19T07:40:01;16.98;;;3.05;;
24407;SDS011;12542;50.924;4.516;2023-09-19T07:42:34;11.52;;;1.83;;
24407;SDS011;12542;50.924;4.516;2023-09-19T07:45:04;10.07;;;1.77;;
24407;SDS011;12542;50.924;4.516;2023-09-19T07:47:30;9.68;;;1.63;;
24407;SDS011;12542;50.924;4.516;2023-09-19T07:49:57;11.23;;;1.88;;
24407;SDS011;12542;50.924;4.516;2023-09-19T07:52:24;8.25;;;1.88;;
24407;SDS011;12542;50.924;4.516;2023-09-19T07:54:52;13.57;;;1.73;;
24407;SDS011;12542;50.924;4.516;2023-09-19T07:57:18;11.98;;;2.42;;
24407;SDS011;12542;50.924;4.516;2023-09-19T07:59:45;9.82;;;1.67;;
24407;SDS011;12542;50.924;4.516;2023-09-19T08:02:10;9.55;;;1.98;;
24407;SDS011;12542;50.924;4.516;2023-09-19T08:04:42;9.77;;;2.00;;
24407;SDS011;12542;50.924;4.516;2023-09-19T08:07:08;14.30;;;2.63;;
24407;SDS011;12542;50.924;4.516;2023-09-19T08:09:34;10.00;;;2.50;;
24407;SDS011;12542;50.924;4.516;2023-09-19T08:11:59;11.85;;;1.77;;
24407;SDS011;12542;50.924;4.516;2023-09-19T08:14:32;10.45;;;1.67;;
24407;SDS011;12542;50.924;4.516;2023-09-19T08:16:58;8.57;;;2.17;;
24407;SDS011;12542;50.924;4.516;2023-09-19T08:19:25;14.20;;;1.95;;
24407;SDS011;12542;50.924;4.516;2023-09-19T08:21:56;12.13;;;2.08;;
24407;SDS011;12542;50.924;4.516;2023-09-19T08:24:26;7.90;;;1.70;;
24407;SDS011;12542;50.924;4.516;2023-09-19T08:26:55;13.40;;;2.47;;
24407;SDS011;12542;50.924;4.516;2023-09-19T08:29:22;10.52;;;2.33;;
24407;SDS011;12542;50.924;4.516;2023-09-19T08:31:56;7.30;;;2.20;;
24407;SDS011;12542;50.924;4.516;2023-09-19T08:34:22;13.85;;;1.88;;
24407;SDS011;12542;50.924;4.516;2023-09-19T08:36:55;8.25;;;1.95;;
24407;SDS011;12542;50.924;4.516;2023-09-19T08:39:24;10.20;;;1.98;;
24407;SDS011;12542;50.924;4.516;2023-09-19T08:41:57;11.73;;;2.08;;
24407;SDS011;12542;50.924;4.516;2023-09-19T08:44:24;16.47;;;2.07;;
24407;SDS011;12542;50.924;4.516;2023-09-19T08:46:50;11.20;;;2.05;;
24407;SDS011;12542;50.924;4.516;2023-09-19T08:49:24;12.63;;;2.30;;
24407;SDS011;12542;50.924;4.516;2023-09-19T08:52:02;12.32;;;2.03;;
24407;SDS011;12542;50.924;4.516;2023-09-19T08:54:38;10.00;;;1.70;;
24407;SDS011;12542;50.924;4.516;2023-09-19T08:57:08;9.00;;;1.55;;
24407;SDS011;12542;50.924;4.516;2023-09-19T08:59:36;12.18;;;2.05;;
24407;SDS011;12542;50.924;4.516;2023-09-19T09:02:09;10.20;;;1.80;;
24407;SDS011;12542;50.924;4.516;2023-09-19T09:04:38;9.48;;;1.70;;
24407;SDS011;12542;50.924;4.516;2023-09-19T09:07:12;12.27;;;2.05;;
24407;SDS011;12542;50.924;4.516;2023-09-19T09:09:38;11.10;;;2.63;;
24407;SDS011;12542;50.924;4.516;2023-09-19T09:12:16;8.75;;;1.88;;
24407;SDS011;12542;50.924;4.516;2023-09-19T09:14:46;9.68;;;1.83;;
24407;SDS011;12542;50.924;4.516;2023-09-19T09:17:14;8.45;;;1.83;;
24407;SDS011;12542;50.924;4.516;2023-09-19T09:19:47;9.60;;;1.50;;
24407;SDS011;12542;50.924;4.516;2023-09-19T09:22:12;8.07;;;1.60;;
24407;SDS011;12542;50.924;4.516;2023-09-19T09:24:54;9.18;;;2.17;;
24407;SDS011;12542;50.924;4.516;2023-09-19T09:27:23;9.25;;;1.95;;
24407;SDS011;12542;50.924;4.516;2023-09-19T09:29:50;9.52;;;1.92;;
24407;SDS011;12542;50.924;4.516;2023-09-19T09:34:44;8.90;;;1.75;;
24407;SDS011;12542;50.924;4.516;2023-09-19T09:37:14;10.57;;;1.63;;
24407;SDS011;12542;50.924;4.516;2023-09-19T09:39:40;10.05;;;1.63;;
24407;SDS011;12542;50.924;4.516;2023-09-19T09:42:37;9.68;;;2.13;;
24407;SDS011;12542;50.924;4.516;2023-09-19T09:45:22;10.20;;;2.05;;
24407;SDS011;12542;50.924;4.516;2023-09-19T09:47:57;9.18;;;1.50;;
24407;SDS011;12542;50.924;4.516;2023-09-19T09:53:06;10.23;;;1.85;;
24407;SDS011;12542;50.924;4.516;2023-09-19T09:56:09;8.63;;;1.40;;
24407;SDS011;12542;50.924;4.516;2023-09-19T09:58:37;8.98;;;1.20;;
24407;SDS011;12542;50.924;4.516;2023-09-19T10:01:14;9.88;;;1.50;;
24407;SDS011;12542;50.924;4.516;2023-09-19T10:03:41;9.48;;;1.40;;
24407;SDS011;12542;50.924;4.516;2023-09-19T10:06:14;9.50;;;1.38;;
24407;SDS011;12542;50.924;4.516;2023-09-19T10:09:09;5.53;;;1.13;;
24407;SDS011;12542;50.924;4.516;2023-09-19T10:12:02;7.80;;;1.45;;
24407;SDS011;12542;50.924;4.516;2023-09-19T10:14:30;7.78;;;1.30;;
24407;SDS011;12542;50.924;4.516;2023-09-19T10:17:00;6.85;;;1.60;;
24407;SDS011;12542;50.924;4.516;2023-09-19T10:19:35;6.18;;;1.33;;
24407;SDS011;12542;50.924;4.516;2023-09-19T10:22:02;4.20;;;0.82;;
24407;SDS011;12542;50.924;4.516;2023-09-19T10:24:30;7.40;;;1.38;;
24407;SDS011;12542;50.924;4.516;2023-09-19T10:27:01;7.00;;;1.70;;
24407;SDS011;12542;50.924;4.516;2023-09-19T10:29:29;7.47;;;1.20;;
24407;SDS011;12542;50.924;4.516;2023-09-19T10:32:00;7.20;;;1.50;;
24407;SDS011;12542;50.924;4.516;2023-09-19T10:34:31;4.68;;;1.13;;
24407;SDS011;12542;50.924;4.516;2023-09-19T10:37:00;7.55;;;1.15;;
24407;SDS011;12542;50.924;4.516;2023-09-19T10:39:30;7.60;;;1.88;;
24407;SDS011;12542;50.924;4.516;2023-09-19T10:41:58;5.05;;;1.00;;
24407;SDS011;12542;50.924;4.516;2023-09-19T10:44:31;6.32;;;1.10;;
24407;SDS011;12542;50.924;4.516;2023-09-19T10:46:58;7.30;;;1.05;;
24407;SDS011;12542;50.924;4.516;2023-09-19T10:49:24;6.22;;;1.33;;
24407;SDS011;12542;50.924;4.516;2023-09-19T10:51:54;8.23;;;1.23;;
24407;SDS011;12542;50.924;4.516;2023-09-19T10:54:26;5.10;;;1.00;;
24407;SDS011;12542;50.924;4.516;2023-09-19T10:56:57;4.57;;;0.75;;
24407;SDS011;12542;50.924;4.516;2023-09-19T10:59:24;9.65;;;1.55;;
24407;SDS011;12542;50.924;4.516;2023-09-19T11:04:26;4.70;;;1.10;;
24407;SDS011;12542;50.924;4.516;2023-09-19T11:15:00;10.32;;;1.27;;
24407;SDS011;12542;50.924;4.516;2023-09-19T11:17:31;3.17;;;0.68;;
24407;SDS011;12542;50.924;4.516;2023-09-19T11:30:47;7.90;;;1.10;;
24407;SDS011;12542;50.924;4.516;2023-09-19T11:33:21;5.82;;;1.02;;
24407;SDS011;12542;50.924;4.516;2023-09-19T11:43:51;5.60;;;1.00;;
24407;SDS011;12542;50.924;4.516;2023-09-19T11:46:20;5.50;;;1.23;;
24407;SDS011;12542;50.924;4.516;2023-09-19T11:48:47;2.83;;;0.60;;
24407;SDS011;12542;50.924;4.516;2023-09-19T11:51:15;4.20;;;0.70;;
24407;SDS011;12542;50.924;4.516;2023-09-19T11:53:47;6.20;;;1.27;;
24407;SDS011;12542;50.924;4.516;2023-09-19T11:56:17;5.35;;;0.73;;
24407;SDS011;12542;50.924;4.516;2023-09-19T11:58:44;6.50;;;0.95;;
24407;SDS011;12542;50.924;4.516;2023-09-19T12:01:14;5.40;;;0.90;;
24407;SDS011;12542;50.924;4.516;2023-09-19T12:03:45;4.07;;;0.65;;
24407;SDS011;12542;50.924;4.516;2023-09-19T12:06:15;5.05;;;0.70;;
24407;SDS011;12542;50.924;4.516;2023-09-19T12:08:42;3.05;;;0.68;;
24407;SDS011;12542;50.924;4.516;2023-09-19T12:11:15;7.78;;;1.10;;
24407;SDS011;12542;50.924;4.516;2023-09-19T12:13:45;6.43;;;1.40;;
24407;SDS011;12542;50.924;4.516;2023-09-19T12:16:18;5.75;;;0.98;;
24407;SDS011;12542;50.924;4.516;2023-09-19T12:18:47;6.15;;;1.08;;
24407;SDS011;12542;50.924;4.516;2023-09-19T12:21:52;10.68;;;1.48;;
24407;SDS011;12542;50.924;4.516;2023-09-19T12:24:11;8.18;;;1.30;;
24407;SDS011;12542;50.924;4.516;2023-09-19T12:26:47;7.13;;;1.35;;
24407;SDS011;12542;50.924;4.516;2023-09-19T12:29:16;5.65;;;0.60;;
24407;SDS011;12542;50.924;4.516;2023-09-19T12:31:47;8.43;;;1.10;;
24407;SDS011;12542;50.924;4.516;2023-09-19T12:34:35;11.07;;;0.90;;
24407;SDS011;12542;50.924;4.516;2023-09-19T12:39:52;8.75;;;0.95;;
24407;SDS011;12542;50.924;4.516;2023-09-19T12:42:22;8.32;;;0.90;;
24407;SDS011;12542;50.924;4.516;2023-09-19T12:44:53;3.00;;;0.68;;
24407;SDS011;12542;50.924;4.516;2023-09-19T12:47:22;4.97;;;0.80;;
24407;SDS011;12542;50.924;4.516;2023-09-19T12:52:38;4.72;;;1.00;;
24407;SDS011;12542;50.924;4.516;2023-09-19T12:55:24;4.00;;;1.30;;
24407;SDS011;12542;50.924;4.516;2023-09-19T12:57:58;3.70;;;0.75;;
24407;SDS011;12542;50.924;4.516;2023-09-19T13:00:33;4.95;;;0.82;;
24407;SDS011;12542;50.924;4.516;2023-09-19T13:05:55;4.90;;;1.25;;
24407;SDS011;12542;50.924;4.516;2023-09-19T13:16:07;9.05;;;0.93;;
24407;SDS011;12542;50.924;4.516;2023-09-19T13:18:43;4.82;;;0.80;;
24407;SDS011;12542;50.924;4.516;2023-09-19T13:21:10;4.38;;;0.95;;
24407;SDS011;12542;50.924;4.516;2023-09-19T13:23:52;5.82;;;1.02;;
24407;SDS011;12542;50.924;4.516;2023-09-19T13:26:21;5.85;;;0.68;;
24407;SDS011;12542;50.924;4.516;2023-09-19T13:28:47;5.00;;;0.60;;
24407;SDS011;12542;50.924;4.516;2023-09-19T13:31:14;5.60;;;1.30;;
24407;SDS011;12542;50.924;4.516;2023-09-19T13:33:43;7.20;;;0.77;;
24407;SDS011;12542;50.924;4.516;2023-09-19T13:36:10;5.85;;;0.60;;
24407;SDS011;12542;50.924;4.516;2023-09-19T13:38:37;3.33;;;0.70;;
24407;SDS011;12542;50.924;4.516;2023-09-19T13:41:02;5.22;;;1.05;;
24407;SDS011;12542;50.924;4.516;2023-09-19T13:43:28;5.93;;;1.08;;
24407;SDS011;12542;50.924;4.516;2023-09-19T13:45:54;4.95;;;1.13;;
24407;SDS011;12542;50.924;4.516;2023-09-19T13:48:20;4.38;;;1.20;;
24407;SDS011;12542;50.924;4.516;2023-09-19T13:50:48;3.97;;;0.80;;
24407;SDS011;12542;50.924;4.516;2023-09-19T13:53:14;5.40;;;1.15;;
24407;SDS011;12542;50.924;4.516;2023-09-19T13:55:39;4.20;;;0.90;;
24407;SDS011;12542;50.924;4.516;2023-09-19T13:58:06;8.40;;;1.10;;
24407;SDS011;12542;50.924;4.516;2023-09-19T14:00:32;4.95;;;0.90;;
24407;SDS011;12542;50.924;4.516;2023-09-19T14:03:00;4.15;;;1.08;;
24407;SDS011;12542;50.924;4.516;2023-09-19T14:05:26;4.78;;;1.00;;
24407;SDS011;12542;50.924;4.516;2023-09-19T14:07:53;5.47;;;1.10;;
24407;SDS011;12542;50.924;4.516;2023-09-19T14:10:23;4.07;;;0.80;;
24407;SDS011;12542;50.924;4.516;2023-09-19T14:12:49;5.65;;;0.77;;
24407;SDS011;12542;50.924;4.516;2023-09-19T14:15:14;7.53;;;1.05;;
24407;SDS011;12542;50.924;4.516;2023-09-19T14:17:40;9.60;;;0.98;;
24407;SDS011;12542;50.924;4.516;2023-09-19T14:20:12;7.18;;;1.17;;
24407;SDS011;12542;50.924;4.516;2023-09-19T14:22:38;3.95;;;0.82;;
24407;SDS011;12542;50.924;4.516;2023-09-19T14:25:04;7.05;;;1.10;;
24407;SDS011;12542;50.924;4.516;2023-09-19T14:27:30;2.88;;;0.90;;
24407;SDS011;12542;50.924;4.516;2023-09-19T14:29:56;4.70;;;1.10;;
24407;SDS011;12542;50.924;4.516;2023-09-19T14:32:22;9.10;;;1.20;;
24407;SDS011;12542;50.924;4.516;2023-09-19T14:34:48;5.65;;;1.20;;
24407;SDS011;12542;50.924;4.516;2023-09-19T14:37:14;5.65;;;1.00;;
24407;SDS011;12542;50.924;4.516;2023-09-19T14:39:41;3.75;;;0.90;;
24407;SDS011;12542;50.924;4.516;2023-09-19T14:42:09;5.57;;;1.13;;
24407;SDS011;12542;50.924;4.516;2023-09-19T14:44:35;4.72;;;1.02;;
24407;SDS011;12542;50.924;4.516;2023-09-19T14:47:02;3.75;;;0.80;;
24407;SDS011;12542;50.924;4.516;2023-09-19T14:49:35;9.35;;;1.00;;
24407;SDS011;12542;50.924;4.516;2023-09-19T14:52:07;8.52;;;1.33;;
24407;SDS011;12542;50.924;4.516;2023-09-19T14:54:33;8.60;;;0.80;;
24407;SDS011;12542;50.924;4.516;2023-09-19T14:56:59;4.22;;;1.00;;
24407;SDS011;12542;50.924;4.516;2023-09-19T14:59:33;4.57;;;0.95;;
24407;SDS011;12542;50.924;4.516;2023-09-19T15:02:06;6.22;;;1.45;;
24407;SDS011;12542;50.924;4.516;2023-09-19T15:04:32;6.07;;;1.00;;
24407;SDS011;12542;50.924;4.516;2023-09-19T15:06:58;7.35;;;1.83;;
24407;SDS011;12542;50.924;4.516;2023-09-19T15:09:27;4.28;;;0.90;;
24407;SDS011;12542;50.924;4.516;2023-09-19T15:11:53;7.82;;;1.40;;
24407;SDS011;12542;50.924;4.516;2023-09-19T15:14:20;8.40;;;1.45;;
24407;SDS011;12542;50.924;4.516;2023-09-19T15:16:46;7.40;;;1.45;;
24407;SDS011;12542;50.924;4.516;2023-09-19T15:19:12;5.78;;;0.80;;
24407;SDS011;12542;50.924;4.516;2023-09-19T15:21:38;5.55;;;1.20;;
24407;SDS011;12542;50.924;4.516;2023-09-19T15:24:05;7.80;;;1.25;;
24407;SDS011;12542;50.924;4.516;2023-09-19T15:26:34;3.85;;;1.10;;
24407;SDS011;12542;50.924;4.516;2023-09-19T15:29:04;4.95;;;1.17;;
24407;SDS011;12542;50.924;4.516;2023-09-19T15:31:34;4.30;;;1.48;;
24407;SDS011;12542;50.924;4.516;2023-09-19T15:34:01;8.80;;;1.35;;
24407;SDS011;12542;50.924;4.516;2023-09-19T15:36:28;5.45;;;1.10;;
24407;SDS011;12542;50.924;4.516;2023-09-19T15:38:57;12.23;;;1.63;;
24407;SDS011;12542;50.924;4.516;2023-09-19T15:41:33;4.65;;;1.10;;
24407;SDS011;12542;50.924;4.516;2023-09-19T15:44:02;3.45;;;1.15;;
24407;SDS011;12542;50.924;4.516;2023-09-19T15:46:31;7.07;;;1.95;;
24407;SDS011;12542;50.924;4.516;2023-09-19T15:49:01;7.18;;;1.25;;
24407;SDS011;12542;50.924;4.516;2023-09-19T15:51:28;9.55;;;1.50;;
24407;SDS011;12542;50.924;4.516;2023-09-19T15:53:56;4.30;;;1.17;;
24407;SDS011;12542;50.924;4.516;2023-09-19T15:56:22;9.18;;;1.30;;
24407;SDS011;12542;50.924;4.516;2023-09-19T15:58:51;5.07;;;1.15;;